Dades de l'estació automàtica Cantonigròs
Resum diari
21:30 TU| Temperatura mitjana | 11.7 °C | |
|---|---|---|
| Temperatura màxima | 17.6 °C | 12:32 TU |
| Temperatura mínima | 8.3 °C | 21:50 TU |
| Humitat relativa mitjana | 91% | |
| Precipitació acumulada | 19.6 mm | |
| Ratxa màxima del vent (10 m) | 33.1 km/h - 228º | 20:34 TU |
| Irradiació solar global | 13.7 MJ/m2 | |
El tram horari està expressat en Temps Universal (TU). Cal sumar una hora en horari d'hivern i dues en horari d'estiu per passar a l'hora oficial.
Cantonigròs
| Municipi | l'Esquirol |
|---|---|
| Comarca | Osona |
| Altitud | 927 m |
| Data alta | 18.02.2025 |
| Estat actual | Operativa |
| Període TU |
TM °C |
TX °C |
TN °C |
HRM % |
PPT mm |
VVM (10 m) km/h |
DVM (10 m) graus |
VVX (10 m) km/h |
RS W/m2 |
|---|---|---|---|---|---|---|---|---|---|
| 00:00 - 00:30 | 10.0 | 10.0 | 9.8 | 93 | 0.0 | 2.2 | 237 | 4.7 | 0 |
| 00:30 - 01:00 | 9.7 | 9.9 | 9.6 | 98 | 0.0 | 4.7 | 254 | 9.4 | 0 |
| 01:00 - 01:30 | 9.7 | 9.7 | 9.6 | 99 | 0.0 | 5.8 | 271 | 10.4 | 0 |
| 01:30 - 02:00 | 9.6 | 9.6 | 9.5 | 100 | 0.0 | 4.7 | 287 | 9.4 | 0 |
| 02:00 - 02:30 | 9.5 | 9.6 | 9.5 | 100 | 0.0 | 4.3 | 251 | 6.8 | 0 |
| 02:30 - 03:00 | 9.4 | 9.5 | 9.3 | 100 | 0.0 | 3.2 | 246 | 7.9 | 0 |
| 03:00 - 03:30 | 9.3 | 9.4 | 9.2 | 100 | 0.0 | 2.2 | 247 | 7.2 | 0 |
| 03:30 - 04:00 | 9.6 | 9.7 | 9.4 | 100 | 0.0 | 1.8 | 208 | 4.3 | 0 |
| 04:00 - 04:30 | 9.7 | 9.7 | 9.6 | 99 | 0.0 | 2.2 | 269 | 4.0 | 0 |
| 04:30 - 05:00 | 9.7 | 9.7 | 9.6 | 99 | 0.0 | 1.8 | 298 | 4.3 | 2 |
| 05:00 - 05:30 | 9.8 | 9.9 | 9.7 | 99 | 0.0 | 4.0 | 271 | 7.9 | 10 |
| 05:30 - 06:00 | 10.2 | 10.6 | 9.9 | 98 | 0.0 | 4.3 | 282 | 9.0 | 93 |
| 06:00 - 06:30 | 10.6 | 10.7 | 10.5 | 97 | 0.0 | 6.8 | 268 | 13.3 | 118 |
| 06:30 - 07:00 | 11.2 | 11.4 | 10.9 | 95 | 0.0 | 7.9 | 265 | 13.3 | 255 |
| 07:00 - 07:30 | 11.2 | 12.0 | 10.9 | 94 | 0.0 | 4.7 | 253 | 10.4 | 231 |
| 07:30 - 08:00 | 12.6 | 12.9 | 12.0 | 87 | 0.0 | 6.1 | 274 | 12.6 | 521 |
| 08:00 - 08:30 | 13.3 | 13.8 | 12.8 | 86 | 0.0 | 6.5 | 253 | 12.2 | 651 |
| 08:30 - 09:00 | 14.3 | 14.8 | 13.8 | 81 | 0.0 | 7.6 | 239 | 12.6 | 587 |
| 09:00 - 09:30 | 14.3 | 15.1 | 13.7 | 82 | 0.0 | 9.0 | 243 | 16.9 | 586 |
| 09:30 - 10:00 | 14.3 | 15.2 | 14.1 | 77 | 0.0 | 9.7 | 250 | 16.2 | 522 |
| 10:00 - 10:30 | 15.3 | 15.9 | 15.0 | 71 | 0.0 | 5.8 | 233 | 13.0 | 600 |
| 10:30 - 11:00 | 15.2 | 16.1 | 14.7 | 71 | 0.0 | 3.2 | 273 | 10.8 | 466 |
| 11:00 - 11:30 | 16.6 | 17.1 | 16.2 | 65 | 0.0 | 5.0 | 231 | 14.0 | 658 |
| 11:30 - 12:00 | 16.9 | 17.2 | 16.4 | 66 | 0.0 | 6.1 | 266 | 15.8 | 629 |
| 12:00 - 12:30 | 17.1 | 17.5 | 16.8 | 63 | 0.0 | 6.8 | 238 | 14.0 | 532 |
| 12:30 - 13:00 | 16.3 | 17.6 | 15.4 | 68 | 0.0 | 6.5 | 263 | 15.5 | 140 |
| 13:00 - 13:30 | 13.2 | 15.4 | 11.8 | 84 | 0.4 | 9.0 | 287 | 25.2 | 43 |
| 13:30 - 14:00 | 12.6 | 13.0 | 11.9 | 82 | 0.1 | 2.9 | 36 | 7.9 | 164 |
| 14:00 - 14:30 | 12.6 | 13.1 | 11.8 | 86 | 1.5 | 3.2 | 251 | 13.0 | 36 |
| 14:30 - 15:00 | 11.7 | 11.8 | 11.6 | 97 | 1.8 | 9.0 | 244 | 24.1 | 30 |
| 15:00 - 15:30 | 11.1 | 11.6 | 10.9 | 99 | 1.2 | 9.4 | 216 | 19.4 | 94 |
| 15:30 - 16:00 | 11.1 | 11.2 | 10.9 | 98 | 0.3 | 5.8 | 205 | 10.4 | 118 |
| 16:00 - 16:30 | 11.3 | 11.6 | 11.2 | 98 | 0.0 | 5.4 | 215 | 9.7 | 176 |
| 16:30 - 17:00 | 11.6 | 12.1 | 11.3 | 97 | 0.0 | 3.6 | 240 | 9.7 | 191 |
| 17:00 - 17:30 | 11.5 | 12.1 | 11.2 | 97 | 0.0 | 3.6 | 263 | 6.8 | 82 |
| 17:30 - 18:00 | 11.2 | 11.3 | 11.1 | 97 | 0.0 | 1.4 | 182 | 4.3 | 45 |
| 18:00 - 18:30 | 11.2 | 11.3 | 11.1 | 97 | 0.0 | 0.7 | 51 | 3.2 | 19 |
| 18:30 - 19:00 | 10.9 | 11.3 | 10.7 | 97 | 0.0 | 2.2 | 212 | 5.0 | 5 |
| 19:00 - 19:30 | 10.6 | 10.8 | 10.5 | 97 | 0.0 | 3.2 | 266 | 6.8 | 0 |
| 19:30 - 20:00 | 10.7 | 10.7 | 10.7 | 99 | 0.0 | 1.1 | 299 | 4.7 | 0 |
| 20:00 - 20:30 | 10.8 | 10.9 | 10.7 | 99 | 2.3 | 1.4 | 233 | 6.8 | 0 |
| 20:30 - 21:00 | 9.1 | 10.7 | 8.5 | 99 | 11.4 | 9.0 | 276 | 33.1 | 1 |
| 21:00 - 21:30 | 8.7 | 8.8 | 8.6 | 99 | 0.6 | 6.1 | 88 | 14.0 | 0 |
| 21:30 - 22:00 | 8.4 | 8.7 | 8.3 | 99 | 0.0 | 3.6 | 120 | 12.6 | 0 |
| 22:00 - 22:30 | (s/d) | (s/d) | (s/d) | (s/d) | (s/d) | (s/d) | (s/d) | (s/d) | (s/d) |
Les dades en taronja només han passat un control de qualitat automàtic. Resta pendent la seva validació definitiva.